Time;durP1;ratioP1;P1;durP2;ratioP2;P2;SDS_P1;SDS_P2;PMS_P1;PMS_P2;Temp;Humidity;BMP_temperature;BMP_pressure;BME280_temperature;BME280_humidity;BME280_pressure;Samples;Min_cycle;Max_cycle;Signal;HPM_P1;HPM_P2
2023/08/04 00:00:32;;;;;;;1.85;0.93;;;;;;;;;;5019493;28;20108;-81
2023/08/04 00:02:58;;;;;;;1.73;1.13;;;;;;;;;;5016762;28;20032;-81
2023/08/04 00:05:23;;;;;;;1.42;0.85;;;;;;;;;;5018338;28;20487;-81
2023/08/04 00:07:48;;;;;;;1.48;0.85;;;;;;;;;;5030005;28;20104;-81
2023/08/04 00:10:14;;;;;;;1.27;0.90;;;;;;;;;;5031901;28;20049;-81
2023/08/04 00:12:39;;;;;;;2.72;0.60;;;;;;;;;;5031604;28;20113;-81
2023/08/04 00:15:08;;;;;;;0.77;0.68;;;;;;;;;;5023364;28;20022;-81
2023/08/04 00:17:35;;;;;;;1.38;0.80;;;;;;;;;;5027209;28;20037;-81
2023/08/04 00:20:01;;;;;;;0.57;0.52;;;;;;;;;;5005480;28;20025;-81
2023/08/04 00:22:26;;;;;;;2.08;0.88;;;;;;;;;;5014104;28;20018;-81
2023/08/04 00:24:52;;;;;;;1.10;0.70;;;;;;;;;;5025559;28;20390;-82
2023/08/04 00:27:18;;;;;;;3.60;0.75;;;;;;;;;;5031834;28;20072;-81
2023/08/04 00:29:43;;;;;;;0.68;0.68;;;;;;;;;;5029543;28;20045;-81
2023/08/04 00:32:08;;;;;;;0.80;0.80;;;;;;;;;;5023288;28;20096;-82
2023/08/04 00:34:34;;;;;;;2.63;1.20;;;;;;;;;;5015699;28;20030;-81
2023/08/04 00:36:59;;;;;;;1.52;0.90;;;;;;;;;;5020849;28;20013;-82
2023/08/04 00:39:25;;;;;;;0.95;0.60;;;;;;;;;;5013387;28;20029;-83
2023/08/04 00:41:50;;;;;;;2.22;1.08;;;;;;;;;;5030527;28;20471;-81
2023/08/04 00:44:15;;;;;;;0.75;0.75;;;;;;;;;;5030739;28;20044;-81
2023/08/04 00:46:41;;;;;;;4.10;1.13;;;;;;;;;;5030853;28;20029;-82
2023/08/04 00:49:07;;;;;;;2.47;1.05;;;;;;;;;;5031887;28;20029;-81
2023/08/04 00:51:34;;;;;;;1.23;0.85;;;;;;;;;;5040462;28;20423;-82
2023/08/04 00:53:59;;;;;;;1.70;0.90;;;;;;;;;;5049459;28;20540;-81
2023/08/04 00:56:27;;;;;;;0.80;0.70;;;;;;;;;;5031860;28;20033;-82
2023/08/04 00:58:53;;;;;;;0.80;0.70;;;;;;;;;;5010716;28;20033;-81
2023/08/04 01:01:18;;;;;;;1.23;0.70;;;;;;;;;;5029476;28;20479;-82
2023/08/04 01:03:44;;;;;;;2.30;0.88;;;;;;;;;;5034183;28;20033;-81
2023/08/04 01:06:24;;;;;;;0.95;0.90;;;;;;;;;;5010872;28;20018;-81
2023/08/04 01:09:09;;;;;;;4.68;0.90;;;;;;;;;;5030852;28;20677;-81
2023/08/04 01:11:42;;;;;;;1.27;0.85;;;;;;;;;;5033068;28;20080;-80
2023/08/04 01:14:10;;;;;;;2.47;1.20;;;;;;;;;;5036578;28;20075;-81
2023/08/04 01:16:36;;;;;;;2.78;1.00;;;;;;;;;;5022337;28;20075;-82
2023/08/04 01:19:01;;;;;;;1.23;0.80;;;;;;;;;;5031150;28;20025;-81
2023/08/04 01:21:27;;;;;;;1.70;0.65;;;;;;;;;;5029704;28;20021;-81
2023/08/04 01:23:53;;;;;;;2.85;1.15;;;;;;;;;;5046576;28;20028;-81
2023/08/04 01:26:21;;;;;;;1.35;0.90;;;;;;;;;;5044379;28;20236;-81
2023/08/04 01:28:48;;;;;;;1.48;0.70;;;;;;;;;;5046224;28;20025;-80
2023/08/04 01:31:13;;;;;;;0.95;0.90;;;;;;;;;;5040013;28;20045;-81
2023/08/04 01:33:39;;;;;;;1.13;0.88;;;;;;;;;;5045500;28;20050;-81
2023/08/04 01:36:04;;;;;;;2.17;0.70;;;;;;;;;;5023360;28;20033;-80
2023/08/04 01:38:29;;;;;;;1.73;1.20;;;;;;;;;;5045741;28;20022;-81
2023/08/04 01:40:55;;;;;;;3.92;1.10;;;;;;;;;;5045213;28;20029;-82
2023/08/04 01:43:20;;;;;;;1.40;1.00;;;;;;;;;;5046959;28;20434;-81
2023/08/04 01:45:46;;;;;;;4.40;1.38;;;;;;;;;;5045320;28;20044;-80
2023/08/04 01:48:11;;;;;;;2.58;0.90;;;;;;;;;;5042764;28;20025;-81
2023/08/04 01:50:36;;;;;;;1.67;0.90;;;;;;;;;;5035949;28;20100;-82
2023/08/04 01:53:02;;;;;;;1.85;1.05;;;;;;;;;;5034811;28;20060;-82
2023/08/04 01:55:27;;;;;;;1.10;1.00;;;;;;;;;;5032001;28;20033;-82
2023/08/04 01:57:52;;;;;;;1.77;0.90;;;;;;;;;;5035412;28;20047;-82
2023/08/04 02:00:18;;;;;;;3.22;0.93;;;;;;;;;;5034958;28;20031;-82
2023/08/04 02:02:44;;;;;;;1.70;1.10;;;;;;;;;;5026572;28;20021;-82
2023/08/04 02:05:10;;;;;;;2.25;1.08;;;;;;;;;;5015131;28;20022;-81
2023/08/04 02:07:35;;;;;;;1.88;1.13;;;;;;;;;;5009932;28;20052;-81
2023/08/04 02:10:02;;;;;;;3.30;0.95;;;;;;;;;;5031339;28;20108;-81
2023/08/04 02:12:27;;;;;;;1.38;0.93;;;;;;;;;;5041549;28;20025;-81
2023/08/04 02:14:53;;;;;;;1.23;0.80;;;;;;;;;;5037570;28;20044;-82
2023/08/04 02:17:18;;;;;;;2.60;1.00;;;;;;;;;;5034884;28;20026;-81
2023/08/04 02:19:43;;;;;;;1.10;0.80;;;;;;;;;;5029628;28;20071;-83
2023/08/04 02:22:08;;;;;;;1.45;0.88;;;;;;;;;;5014109;28;20087;-82
2023/08/04 02:24:34;;;;;;;0.70;0.70;;;;;;;;;;5033676;28;20026;-82
2023/08/04 02:26:59;;;;;;;0.77;0.73;;;;;;;;;;5033333;28;20039;-82
2023/08/04 02:29:25;;;;;;;3.53;1.08;;;;;;;;;;5032301;28;20044;-82
2023/08/04 02:31:51;;;;;;;1.33;0.80;;;;;;;;;;5021545;28;20044;-82
2023/08/04 02:34:16;;;;;;;1.25;0.85;;;;;;;;;;5032969;28;20026;-82
2023/08/04 02:36:42;;;;;;;0.95;0.85;;;;;;;;;;5008522;28;20056;-82
2023/08/04 02:39:07;;;;;;;2.33;0.70;;;;;;;;;;5016773;28;20025;-82
2023/08/04 02:41:33;;;;;;;2.35;1.00;;;;;;;;;;5036676;28;20087;-82
2023/08/04 02:44:00;;;;;;;1.67;0.85;;;;;;;;;;5031636;28;20037;-82
2023/08/04 02:46:25;;;;;;;1.92;1.05;;;;;;;;;;5007302;28;20164;-82
2023/08/04 02:48:51;;;;;;;1.73;0.77;;;;;;;;;;5034465;28;20049;-82
2023/08/04 02:51:16;;;;;;;3.85;0.80;;;;;;;;;;5038304;28;20116;-83
2023/08/04 02:53:43;;;;;;;2.83;0.80;;;;;;;;;;5035241;28;20053;-82
2023/08/04 02:56:14;;;;;;;1.65;0.90;;;;;;;;;;5030073;28;20175;-82
2023/08/04 02:58:41;;;;;;;2.40;0.90;;;;;;;;;;5038271;28;20036;-82
2023/08/04 03:01:06;;;;;;;2.10;0.90;;;;;;;;;;5033898;28;20037;-82
2023/08/04 03:03:32;;;;;;;0.88;0.70;;;;;;;;;;5029178;28;20126;-82
2023/08/04 03:05:58;;;;;;;0.80;0.73;;;;;;;;;;5037781;28;20039;-81
2023/08/04 03:08:24;;;;;;;4.50;1.15;;;;;;;;;;5041383;28;20055;-81
2023/08/04 03:10:49;;;;;;;1.38;0.88;;;;;;;;;;5041227;28;20490;-82
2023/08/04 03:13:15;;;;;;;1.55;0.90;;;;;;;;;;5023390;28;20030;-82
2023/08/04 03:15:40;;;;;;;1.17;0.82;;;;;;;;;;5048509;28;20025;-81
2023/08/04 03:18:05;;;;;;;4.47;0.93;;;;;;;;;;5026947;28;20033;-82
2023/08/04 03:20:36;;;;;;;1.05;0.98;;;;;;;;;;5043287;28;20033;-82
2023/08/04 03:23:02;;;;;;;1.20;1.10;;;;;;;;;;5033089;28;20033;-82
2023/08/04 03:25:27;;;;;;;4.47;1.45;;;;;;;;;;5037415;28;20100;-82
2023/08/04 03:27:52;;;;;;;0.88;0.85;;;;;;;;;;5022589;28;20030;-81
2023/08/04 03:30:18;;;;;;;6.82;1.35;;;;;;;;;;5035574;28;20025;-82
2023/08/04 03:32:43;;;;;;;2.30;1.00;;;;;;;;;;5028810;28;20031;-81
2023/08/04 03:35:09;;;;;;;4.60;1.42;;;;;;;;;;5015448;28;20069;-82
2023/08/04 03:37:34;;;;;;;4.20;1.08;;;;;;;;;;5014993;28;20040;-82
2023/08/04 03:40:00;;;;;;;1.33;0.82;;;;;;;;;;5035336;28;20475;-82
2023/08/04 03:42:25;;;;;;;1.20;0.75;;;;;;;;;;5041422;28;20030;-82
2023/08/04 03:44:50;;;;;;;3.45;0.88;;;;;;;;;;5038691;28;20029;-81
2023/08/04 03:47:16;;;;;;;1.75;0.98;;;;;;;;;;5034926;28;20514;-82
2023/08/04 03:49:41;;;;;;;0.85;0.82;;;;;;;;;;5037008;28;20097;-80
2023/08/04 03:52:07;;;;;;;7.15;1.20;;;;;;;;;;5042850;28;20097;-80
2023/08/04 03:54:32;;;;;;;1.33;0.93;;;;;;;;;;5043492;28;20037;-80
2023/08/04 03:56:57;;;;;;;4.15;1.23;;;;;;;;;;5041526;28;20030;-81
2023/08/04 03:59:23;;;;;;;2.08;0.73;;;;;;;;;;5035462;28;20086;-81
2023/08/04 04:01:48;;;;;;;1.67;1.13;;;;;;;;;;5024575;28;20110;-81
2023/08/04 04:04:13;;;;;;;1.60;1.13;;;;;;;;;;5027816;28;20025;-82
2023/08/04 04:06:38;;;;;;;1.63;1.08;;;;;;;;;;5034406;28;20099;-81
2023/08/04 04:09:04;;;;;;;1.55;0.90;;;;;;;;;;5023272;28;20379;-82
2023/08/04 04:11:29;;;;;;;1.52;1.17;;;;;;;;;;5012246;28;20390;-82
2023/08/04 04:13:55;;;;;;;3.85;0.80;;;;;;;;;;5020236;28;20041;-81
2023/08/04 04:16:21;;;;;;;1.50;1.05;;;;;;;;;;5015986;28;20392;-81
2023/08/04 04:18:46;;;;;;;2.00;1.00;;;;;;;;;;5025073;28;20507;-82
2023/08/04 04:21:12;;;;;;;0.98;0.75;;;;;;;;;;5015879;28;20057;-81
2023/08/04 04:23:37;;;;;;;1.92;0.93;;;;;;;;;;5021975;28;20029;-82
2023/08/04 04:26:04;;;;;;;1.10;0.88;;;;;;;;;;5029582;28;20029;-81
2023/08/04 04:28:30;;;;;;;4.72;1.30;;;;;;;;;;5030301;28;20484;-82
2023/08/04 04:31:02;;;;;;;3.47;1.10;;;;;;;;;;5028418;28;20026;-81
2023/08/04 04:33:28;;;;;;;1.00;0.82;;;;;;;;;;5031076;28;20112;-81
2023/08/04 04:35:53;;;;;;;1.17;1.08;;;;;;;;;;5025047;28;20044;-81
2023/08/04 04:38:18;;;;;;;1.95;1.08;;;;;;;;;;5017727;28;20032;-81
2023/08/04 04:40:44;;;;;;;3.35;1.30;;;;;;;;;;5030284;28;20021;-81
2023/08/04 04:43:09;;;;;;;2.42;1.08;;;;;;;;;;5025249;28;20045;-80
2023/08/04 04:45:34;;;;;;;5.00;1.30;;;;;;;;;;5013384;28;20041;-80
2023/08/04 04:48:00;;;;;;;4.85;1.42;;;;;;;;;;5033263;28;20108;-81
2023/08/04 04:50:25;;;;;;;3.85;1.10;;;;;;;;;;5029277;28;20021;-81
2023/08/04 04:52:51;;;;;;;1.17;1.08;;;;;;;;;;5025061;28;20375;-81
2023/08/04 04:55:17;;;;;;;3.38;1.00;;;;;;;;;;5029381;28;20041;-81
2023/08/04 04:57:42;;;;;;;0.98;0.88;;;;;;;;;;5025977;28;20061;-82
2023/08/04 05:00:08;;;;;;;4.88;1.55;;;;;;;;;;5019598;28;20045;-81
2023/08/04 05:02:34;;;;;;;1.65;1.10;;;;;;;;;;5030371;28;20040;-81
2023/08/04 05:04:59;;;;;;;2.50;1.20;;;;;;;;;;5013682;28;20029;-82
2023/08/04 05:07:24;;;;;;;4.20;1.50;;;;;;;;;;5015182;28;20036;-82
2023/08/04 05:09:50;;;;;;;1.50;1.20;;;;;;;;;;5011790;28;20067;-81
2023/08/04 05:12:15;;;;;;;3.42;1.65;;;;;;;;;;5000204;28;20404;-82
2023/08/04 05:14:40;;;;;;;3.05;1.48;;;;;;;;;;5015226;28;20479;-82
2023/08/04 05:17:06;;;;;;;3.30;1.40;;;;;;;;;;5019197;28;20547;-83
2023/08/04 05:19:31;;;;;;;2.63;1.13;;;;;;;;;;5029348;28;20052;-83
2023/08/04 05:21:57;;;;;;;3.42;1.63;;;;;;;;;;5017376;28;20759;-84
2023/08/04 05:24:22;;;;;;;2.40;1.50;;;;;;;;;;5030347;28;20038;-83
2023/08/04 05:26:47;;;;;;;3.10;1.45;;;;;;;;;;5034504;28;20049;-83
2023/08/04 05:29:13;;;;;;;3.50;1.63;;;;;;;;;;5027514;28;20048;-83
2023/08/04 05:31:38;;;;;;;3.53;1.63;;;;;;;;;;5033990;28;20029;-83
2023/08/04 05:34:03;;;;;;;3.92;1.67;;;;;;;;;;5031104;28;20022;-83
2023/08/04 05:36:29;;;;;;;1.40;1.23;;;;;;;;;;5037976;28;20032;-83
2023/08/04 05:38:54;;;;;;;3.08;1.30;;;;;;;;;;5040246;28;20095;-83
2023/08/04 05:41:19;;;;;;;1.65;1.30;;;;;;;;;;5035736;28;20025;-83
2023/08/04 05:43:45;;;;;;;2.25;1.30;;;;;;;;;;5032464;28;20029;-83
2023/08/04 05:46:12;;;;;;;3.92;1.58;;;;;;;;;;5045819;28;20103;-82
2023/08/04 05:48:38;;;;;;;2.88;1.65;;;;;;;;;;5030741;28;20574;-82
2023/08/04 05:51:05;;;;;;;6.03;1.67;;;;;;;;;;5037364;28;20029;-83
2023/08/04 05:53:30;;;;;;;3.72;1.45;;;;;;;;;;5034885;28;20033;-83
2023/08/04 05:55:55;;;;;;;1.45;1.25;;;;;;;;;;5040341;28;20032;-82
2023/08/04 05:58:21;;;;;;;3.05;1.70;;;;;;;;;;5030405;28;20531;-82
2023/08/04 06:00:46;;;;;;;3.72;1.38;;;;;;;;;;5032826;28;20033;-82
2023/08/04 06:03:11;;;;;;;8.85;1.63;;;;;;;;;;5013993;28;20026;-82
2023/08/04 06:05:37;;;;;;;2.95;1.42;;;;;;;;;;5043366;28;20124;-81
2023/08/04 06:08:03;;;;;;;1.60;1.48;;;;;;;;;;5015611;28;20030;-82
2023/08/04 06:10:29;;;;;;;3.20;1.20;;;;;;;;;;5016452;28;20053;-81
2023/08/04 06:12:54;;;;;;;1.73;1.50;;;;;;;;;;5031756;28;20064;-81
2023/08/04 06:15:20;;;;;;;3.85;1.60;;;;;;;;;;5029277;28;20641;-81
2023/08/04 06:17:47;;;;;;;1.05;0.95;;;;;;;;;;5033951;28;20034;-81
2023/08/04 06:20:12;;;;;;;2.45;1.23;;;;;;;;;;5038670;28;20021;-81
2023/08/04 06:22:38;;;;;;;3.47;1.55;;;;;;;;;;5030816;28;20017;-81
2023/08/04 06:25:04;;;;;;;2.50;1.45;;;;;;;;;;5028384;28;20517;-81
2023/08/04 06:27:29;;;;;;;2.40;1.45;;;;;;;;;;5037530;28;20026;-82
2023/08/04 06:29:55;;;;;;;4.90;1.92;;;;;;;;;;5029110;28;20036;-81
2023/08/04 06:32:21;;;;;;;3.15;1.70;;;;;;;;;;5032786;28;20029;-81
2023/08/04 06:34:46;;;;;;;2.92;1.50;;;;;;;;;;5029522;28;20149;-83
2023/08/04 06:37:11;;;;;;;4.88;1.42;;;;;;;;;;5037483;28;20030;-81
2023/08/04 06:39:37;;;;;;;2.67;1.30;;;;;;;;;;5033132;28;20674;-81
2023/08/04 06:42:04;;;;;;;2.20;1.30;;;;;;;;;;5035187;28;20049;-81
2023/08/04 06:44:29;;;;;;;2.17;1.15;;;;;;;;;;5028744;28;20072;-83
2023/08/04 06:46:54;;;;;;;1.33;1.20;;;;;;;;;;5017251;28;20025;-82
2023/08/04 06:49:20;;;;;;;3.03;1.13;;;;;;;;;;5034070;28;20028;-83
2023/08/04 06:51:45;;;;;;;3.58;1.20;;;;;;;;;;5035592;28;20029;-82
2023/08/04 06:54:10;;;;;;;3.80;1.23;;;;;;;;;;5027708;28;20032;-83
2023/08/04 06:56:36;;;;;;;1.42;1.27;;;;;;;;;;5036845;28;20398;-83
2023/08/04 06:59:01;;;;;;;3.65;1.13;;;;;;;;;;5016585;28;20022;-83
2023/08/04 07:01:27;;;;;;;4.28;1.15;;;;;;;;;;5033868;28;20554;-82
2023/08/04 07:03:52;;;;;;;4.30;1.50;;;;;;;;;;5027913;28;20104;-82
2023/08/04 07:06:17;;;;;;;2.42;1.00;;;;;;;;;;5033778;28;20052;-82
2023/08/04 07:08:43;;;;;;;1.88;1.15;;;;;;;;;;5035198;28;20025;-83
2023/08/04 07:11:15;;;;;;;1.73;0.88;;;;;;;;;;5036664;28;20056;-83
2023/08/04 07:13:41;;;;;;;2.25;1.00;;;;;;;;;;5016555;28;20029;-83
2023/08/04 07:16:06;;;;;;;2.85;1.25;;;;;;;;;;5036789;28;20025;-83
2023/08/04 07:18:31;;;;;;;2.00;0.75;;;;;;;;;;5032327;28;20037;-82
2023/08/04 07:21:08;;;;;;;1.80;0.90;;;;;;;;;;5020300;28;20044;-82
2023/08/04 07:23:33;;;;;;;1.33;0.75;;;;;;;;;;5034496;28;20021;-83
2023/08/04 07:25:58;;;;;;;2.10;0.90;;;;;;;;;;5031598;28;20036;-83
2023/08/04 07:28:24;;;;;;;2.10;1.10;;;;;;;;;;5032988;28;20030;-82
2023/08/04 07:30:49;;;;;;;4.03;1.17;;;;;;;;;;5037394;28;20045;-83
2023/08/04 07:33:14;;;;;;;1.98;0.77;;;;;;;;;;5037577;28;20036;-83
2023/08/04 07:35:40;;;;;;;4.30;0.93;;;;;;;;;;5038074;28;20043;-83
2023/08/04 07:38:05;;;;;;;1.85;0.80;;;;;;;;;;5040249;28;20057;-82
2023/08/04 07:40:30;;;;;;;2.33;0.70;;;;;;;;;;5047843;28;20053;-82
2023/08/04 07:42:56;;;;;;;2.42;1.05;;;;;;;;;;5051805;28;20024;-82
2023/08/04 07:45:21;;;;;;;2.05;0.88;;;;;;;;;;5049374;28;20597;-83
2023/08/04 07:47:46;;;;;;;1.70;0.95;;;;;;;;;;5035235;28;20033;-83
2023/08/04 07:50:12;;;;;;;1.80;0.88;;;;;;;;;;5036239;28;20055;-83
2023/08/04 07:52:37;;;;;;;2.22;1.10;;;;;;;;;;5032960;28;20045;-83
2023/08/04 07:55:02;;;;;;;2.13;0.90;;;;;;;;;;5031427;28;20030;-82
2023/08/04 07:57:28;;;;;;;2.15;1.15;;;;;;;;;;5038153;28;20017;-83
2023/08/04 07:59:54;;;;;;;2.95;0.90;;;;;;;;;;5020187;28;20030;-83
2023/08/04 08:02:19;;;;;;;1.00;0.60;;;;;;;;;;5021951;28;20028;-83
2023/08/04 08:04:45;;;;;;;0.50;0.50;;;;;;;;;;5035334;28;20044;-83
2023/08/04 08:07:10;;;;;;;3.03;1.20;;;;;;;;;;5036615;28;20076;-83
2023/08/04 08:09:36;;;;;;;4.28;1.00;;;;;;;;;;5036684;28;20425;-83
2023/08/04 08:12:01;;;;;;;2.90;1.17;;;;;;;;;;5037347;28;20022;-83
2023/08/04 08:14:26;;;;;;;1.98;0.77;;;;;;;;;;5033589;28;20083;-83
2023/08/04 08:16:52;;;;;;;3.85;1.38;;;;;;;;;;5037988;28;20029;-84
2023/08/04 08:19:17;;;;;;;2.15;0.63;;;;;;;;;;5039014;28;20017;-83
2023/08/04 08:21:43;;;;;;;3.47;0.70;;;;;;;;;;5054077;28;20064;-82
2023/08/04 08:24:09;;;;;;;1.58;0.77;;;;;;;;;;5053931;28;20014;-83
2023/08/04 08:26:34;;;;;;;3.10;0.90;;;;;;;;;;5042861;28;20479;-83
2023/08/04 08:29:01;;;;;;;0.75;0.75;;;;;;;;;;5035786;28;20026;-84
2023/08/04 08:31:27;;;;;;;1.20;0.60;;;;;;;;;;5025872;28;20119;-83
2023/08/04 08:33:52;;;;;;;0.90;0.70;;;;;;;;;;5005544;28;20422;-82
2023/08/04 08:36:19;;;;;;;3.33;1.00;;;;;;;;;;5033372;28;20028;-83
2023/08/04 08:38:44;;;;;;;2.20;0.82;;;;;;;;;;5034109;28;20108;-83
2023/08/04 08:41:11;;;;;;;2.22;0.68;;;;;;;;;;5034735;28;20080;-83
2023/08/04 08:43:37;;;;;;;1.90;0.68;;;;;;;;;;5032457;28;20025;-83
2023/08/04 08:46:02;;;;;;;1.75;0.85;;;;;;;;;;5029874;28;20395;-82
2023/08/04 08:48:30;;;;;;;2.13;0.80;;;;;;;;;;5016352;28;20193;-83
2023/08/04 08:51:04;;;;;;;1.98;0.93;;;;;;;;;;5033971;28;20033;-82
2023/08/04 08:53:31;;;;;;;1.55;0.65;;;;;;;;;;5031860;28;20045;-83
2023/08/04 08:56:00;;;;;;;1.70;0.82;;;;;;;;;;5005154;28;20025;-83
2023/08/04 08:58:30;;;;;;;5.18;0.65;;;;;;;;;;5033560;28;20028;-82
2023/08/04 09:00:55;;;;;;;2.10;0.50;;;;;;;;;;5032435;28;20392;-83
2023/08/04 09:03:21;;;;;;;1.17;0.40;;;;;;;;;;5028167;28;20020;-82
2023/08/04 09:05:46;;;;;;;1.25;0.93;;;;;;;;;;5013547;28;20459;-83
2023/08/04 09:08:12;;;;;;;0.90;0.52;;;;;;;;;;5033145;28;20411;-84
2023/08/04 09:10:38;;;;;;;1.65;0.80;;;;;;;;;;5035716;28;20028;-83
2023/08/04 09:13:07;;;;;;;2.83;0.57;;;;;;;;;;5027415;28;20045;-84
2023/08/04 09:15:54;;;;;;;1.08;0.68;;;;;;;;;;5036735;28;20021;-84
2023/08/04 09:18:31;;;;;;;2.63;0.93;;;;;;;;;;5022030;28;20135;-84
2023/08/04 09:21:08;;;;;;;1.02;0.80;;;;;;;;;;5035112;28;20025;-83
2023/08/04 09:23:45;;;;;;;1.15;0.55;;;;;;;;;;5033243;28;20025;-84
2023/08/04 09:26:11;;;;;;;1.02;0.70;;;;;;;;;;5036579;28;20108;-85
2023/08/04 09:28:36;;;;;;;0.75;0.65;;;;;;;;;;5042643;28;20375;-84
2023/08/04 09:31:04;;;;;;;1.58;0.77;;;;;;;;;;5039361;28;20141;-81
2023/08/04 09:33:30;;;;;;;1.20;0.50;;;;;;;;;;5036996;28;20025;-83
2023/08/04 09:36:04;;;;;;;0.77;0.60;;;;;;;;;;5039347;28;20040;-83
2023/08/04 09:38:29;;;;;;;1.27;0.80;;;;;;;;;;5037988;28;20048;-84
2023/08/04 09:41:00;;;;;;;0.95;0.47;;;;;;;;;;5040818;28;20033;-84
2023/08/04 09:43:25;;;;;;;1.70;1.00;;;;;;;;;;5039747;28;20108;-85
2023/08/04 09:46:05;;;;;;;2.85;0.75;;;;;;;;;;5040409;28;20045;-82
2023/08/04 09:48:31;;;;;;;2.28;1.20;;;;;;;;;;5039538;28;20032;-83
2023/08/04 09:51:08;;;;;;;0.95;0.65;;;;;;;;;;5040170;28;20025;-83
2023/08/04 09:53:48;;;;;;;0.32;0.32;;;;;;;;;;5039234;28;20083;-82
2023/08/04 09:56:16;;;;;;;0.63;0.60;;;;;;;;;;5021478;28;20029;-83
2023/08/04 09:58:42;;;;;;;2.55;0.70;;;;;;;;;;5036390;28;20411;-82
2023/08/04 10:01:08;;;;;;;2.90;1.23;;;;;;;;;;5024750;28;20025;-83
2023/08/04 10:03:37;;;;;;;1.27;0.45;;;;;;;;;;5034264;28;20084;-82
2023/08/04 10:06:03;;;;;;;2.50;0.85;;;;;;;;;;5035056;28;20172;-84
2023/08/04 10:08:36;;;;;;;0.98;0.55;;;;;;;;;;5019232;28;20076;-83
2023/08/04 10:11:02;;;;;;;3.03;0.80;;;;;;;;;;5033032;28;20075;-83
2023/08/04 10:13:31;;;;;;;1.85;0.50;;;;;;;;;;5029285;28;20025;-84
2023/08/04 10:15:58;;;;;;;0.95;0.73;;;;;;;;;;5035626;28;20029;-84
2023/08/04 10:18:24;;;;;;;1.98;1.05;;;;;;;;;;5036467;28;20028;-83
2023/08/04 10:20:51;;;;;;;3.15;0.90;;;;;;;;;;5029639;28;20037;-83
2023/08/04 10:23:17;;;;;;;1.90;0.65;;;;;;;;;;5030159;28;20085;-83
2023/08/04 10:25:59;;;;;;;1.48;0.50;;;;;;;;;;5029996;28;20457;-83
2023/08/04 10:28:25;;;;;;;0.63;0.63;;;;;;;;;;5032890;28;20475;-83
2023/08/04 10:31:11;;;;;;;2.25;0.93;;;;;;;;;;5029571;28;20117;-84
2023/08/04 10:33:37;;;;;;;1.05;0.70;;;;;;;;;;5024002;28;20030;-84
2023/08/04 10:36:06;;;;;;;1.60;0.68;;;;;;;;;;5037691;28;20511;-83
2023/08/04 10:38:49;;;;;;;1.67;0.40;;;;;;;;;;5037220;28;20040;-83
2023/08/04 10:41:15;;;;;;;1.10;0.60;;;;;;;;;;5032047;28;20096;-83
2023/08/04 10:43:40;;;;;;;1.88;0.90;;;;;;;;;;5028415;28;20030;-82
2023/08/04 10:46:10;;;;;;;1.08;0.68;;;;;;;;;;5038051;28;20025;-84
2023/08/04 10:48:40;;;;;;;0.82;0.68;;;;;;;;;;5019325;28;20037;-83
2023/08/04 10:51:08;;;;;;;2.83;0.70;;;;;;;;;;5021332;28;20545;-84
2023/08/04 10:53:35;;;;;;;0.70;0.60;;;;;;;;;;5038222;28;20030;-83
2023/08/04 10:56:01;;;;;;;0.60;0.60;;;;;;;;;;5023544;28;20029;-82
2023/08/04 10:58:27;;;;;;;2.10;0.73;;;;;;;;;;5036692;28;20437;-82
2023/08/04 11:00:55;;;;;;;1.27;0.60;;;;;;;;;;5033728;28;20057;-82
2023/08/04 11:03:26;;;;;;;1.85;0.55;;;;;;;;;;5032940;28;20021;-82
2023/08/04 11:05:52;;;;;;;0.77;0.60;;;;;;;;;;5043033;28;20541;-83
2023/08/04 11:08:19;;;;;;;2.00;0.90;;;;;;;;;;5036154;28;20029;-83
2023/08/04 11:10:56;;;;;;;0.45;0.45;;;;;;;;;;5052451;28;20041;-82
2023/08/04 11:13:22;;;;;;;1.30;0.80;;;;;;;;;;5033660;28;20153;-84
2023/08/04 11:15:49;;;;;;;1.15;0.60;;;;;;;;;;5032855;28;20029;-83
2023/08/04 11:18:19;;;;;;;2.78;0.98;;;;;;;;;;5037189;28;20021;-82
2023/08/04 11:20:45;;;;;;;3.33;0.75;;;;;;;;;;5041136;28;20372;-82
2023/08/04 11:23:11;;;;;;;1.60;0.57;;;;;;;;;;5032976;28;20025;-82
2023/08/04 11:25:40;;;;;;;2.08;0.90;;;;;;;;;;5015299;28;20126;-83
2023/08/04 11:28:07;;;;;;;2.80;0.90;;;;;;;;;;5030186;28;20479;-83
2023/08/04 11:30:35;;;;;;;1.88;0.80;;;;;;;;;;5036680;28;20048;-85
2023/08/04 11:33:02;;;;;;;3.22;0.90;;;;;;;;;;5031934;28;20029;-82
2023/08/04 11:35:33;;;;;;;3.92;1.10;;;;;;;;;;5030166;28;20029;-83
2023/08/04 11:38:03;;;;;;;3.78;1.08;;;;;;;;;;5035374;28;20475;-83
2023/08/04 11:40:28;;;;;;;2.40;1.10;;;;;;;;;;5033266;28;20447;-83
2023/08/04 11:42:58;;;;;;;2.35;0.93;;;;;;;;;;5036938;28;20517;-83
2023/08/04 11:45:24;;;;;;;0.73;0.65;;;;;;;;;;5037437;28;20037;-83
2023/08/04 11:47:49;;;;;;;2.92;0.82;;;;;;;;;;5034111;28;20084;-83
2023/08/04 11:50:16;;;;;;;2.03;0.68;;;;;;;;;;5040363;28;20025;-82
2023/08/04 11:52:45;;;;;;;1.67;0.73;;;;;;;;;;5038262;28;20044;-83
2023/08/04 11:55:10;;;;;;;0.82;0.60;;;;;;;;;;5037404;28;20025;-83
2023/08/04 11:57:35;;;;;;;3.75;0.70;;;;;;;;;;5023083;28;20116;-83
2023/08/04 12:00:01;;;;;;;2.15;0.52;;;;;;;;;;5020657;28;20032;-83
2023/08/04 12:02:28;;;;;;;0.50;0.50;;;;;;;;;;5037267;28;20030;-82
2023/08/04 12:05:07;;;;;;;3.03;0.70;;;;;;;;;;5028009;28;20021;-82
2023/08/04 12:07:32;;;;;;;0.88;0.60;;;;;;;;;;5034147;28;20025;-82
2023/08/04 12:09:58;;;;;;;1.27;0.50;;;;;;;;;;5035650;28;20097;-82
2023/08/04 12:12:37;;;;;;;0.98;0.70;;;;;;;;;;5029329;28;20522;-82
2023/08/04 12:15:04;;;;;;;0.43;0.43;;;;;;;;;;5028604;28;20040;-81
2023/08/04 12:17:47;;;;;;;1.40;0.85;;;;;;;;;;5011333;28;20025;-82
2023/08/04 12:20:13;;;;;;;5.07;0.93;;;;;;;;;;5037490;28;20034;-82
2023/08/04 12:22:40;;;;;;;0.45;0.45;;;;;;;;;;5032370;28;20032;-82
2023/08/04 12:25:07;;;;;;;0.95;0.63;;;;;;;;;;5031262;28;20025;-82
2023/08/04 12:27:33;;;;;;;1.52;0.80;;;;;;;;;;5030002;28;20041;-82
2023/08/04 12:29:58;;;;;;;1.98;0.68;;;;;;;;;;5032844;28;20029;-82
2023/08/04 12:32:24;;;;;;;1.65;0.52;;;;;;;;;;5029183;28;20018;-83
2023/08/04 12:34:49;;;;;;;1.77;0.80;;;;;;;;;;5023228;28;20036;-82
2023/08/04 12:37:15;;;;;;;2.95;0.90;;;;;;;;;;5021928;28;20057;-82
2023/08/04 12:39:46;;;;;;;0.40;0.40;;;;;;;;;;5036719;28;20032;-82
2023/08/04 12:42:12;;;;;;;;;;;;;;;;;;5030448;28;20100;-83
2023/08/04 12:44:37;;;;;;;1.38;0.55;;;;;;;;;;5027450;28;20394;-83
2023/08/04 12:47:02;;;;;;;0.30;0.30;;;;;;;;;;5024190;28;20035;-84
2023/08/04 12:49:28;;;;;;;1.40;0.65;;;;;;;;;;5051873;28;20040;-83
2023/08/04 12:51:53;;;;;;;3.10;0.70;;;;;;;;;;5036638;28;20029;-83
2023/08/04 12:54:20;;;;;;;1.25;0.68;;;;;;;;;;5033979;28;20025;-83
2023/08/04 12:56:45;;;;;;;1.50;0.63;;;;;;;;;;5014241;28;20029;-83
2023/08/04 12:59:10;;;;;;;0.80;0.80;;;;;;;;;;5032528;28;20025;-84
2023/08/04 13:01:36;;;;;;;1.73;0.70;;;;;;;;;;5034913;28;20112;-84
2023/08/04 13:04:02;;;;;;;2.25;0.85;;;;;;;;;;5035452;28;20089;-84
2023/08/04 13:06:27;;;;;;;0.80;0.70;;;;;;;;;;5022428;28;20061;-84
2023/08/04 13:08:53;;;;;;;2.53;0.68;;;;;;;;;;5041889;28;20029;-83
2023/08/04 13:11:18;;;;;;;1.00;0.75;;;;;;;;;;5044956;28;20050;-83
2023/08/04 13:13:43;;;;;;;0.60;0.60;;;;;;;;;;5030565;28;20050;-84
2023/08/04 13:16:09;;;;;;;1.35;0.70;;;;;;;;;;5043669;28;20533;-84
2023/08/04 13:18:35;;;;;;;0.93;0.73;;;;;;;;;;5037929;28;20041;-83
2023/08/04 13:21:04;;;;;;;1.02;0.70;;;;;;;;;;5038074;28;20088;-84
2023/08/04 13:23:32;;;;;;;0.60;0.60;;;;;;;;;;5034160;28;20032;-84
2023/08/04 13:26:02;;;;;;;2.22;1.00;;;;;;;;;;5044284;28;20065;-84
2023/08/04 13:28:27;;;;;;;1.42;1.30;;;;;;;;;;5031755;28;20713;-84
2023/08/04 13:30:53;;;;;;;0.93;0.90;;;;;;;;;;5038626;28;20021;-83
2023/08/04 13:33:18;;;;;;;1.77;1.20;;;;;;;;;;5030911;28;20030;-82
2023/08/04 13:35:43;;;;;;;1.40;1.10;;;;;;;;;;5026701;28;20073;-84
2023/08/04 13:38:09;;;;;;;1.40;1.30;;;;;;;;;;5019186;28;20121;-83
2023/08/04 13:40:34;;;;;;;1.80;1.10;;;;;;;;;;5036966;28;20029;-82
2023/08/04 13:42:59;;;;;;;1.65;1.10;;;;;;;;;;5030529;28;20029;-83
2023/08/04 13:45:25;;;;;;;0.90;0.90;;;;;;;;;;5023587;28;20024;-83
2023/08/04 13:47:50;;;;;;;1.52;1.27;;;;;;;;;;5030454;28;20030;-84
2023/08/04 13:50:16;;;;;;;1.30;0.77;;;;;;;;;;5032317;28;20026;-83
2023/08/04 13:52:41;;;;;;;3.17;0.98;;;;;;;;;;5013781;28;20030;-83
2023/08/04 13:55:06;;;;;;;1.60;1.23;;;;;;;;;;5032634;28;20028;-83
2023/08/04 13:57:32;;;;;;;2.40;1.20;;;;;;;;;;5036556;28;20029;-83
2023/08/04 13:59:57;;;;;;;2.30;1.27;;;;;;;;;;5035431;28;20048;-84
2023/08/04 14:02:23;;;;;;;2.83;1.60;;;;;;;;;;5034775;28;20025;-83
2023/08/04 14:04:48;;;;;;;1.60;1.25;;;;;;;;;;5028153;28;20026;-84
2023/08/04 14:07:14;;;;;;;0.88;0.88;;;;;;;;;;5036373;28;20071;-84
2023/08/04 14:09:39;;;;;;;1.20;0.95;;;;;;;;;;5018453;28;20017;-84
2023/08/04 14:12:05;;;;;;;0.85;0.80;;;;;;;;;;5034086;28;20037;-83
2023/08/04 14:14:31;;;;;;;1.42;1.10;;;;;;;;;;5020511;28;20037;-84
2023/08/04 14:16:56;;;;;;;1.30;1.00;;;;;;;;;;5027376;28;20026;-84
2023/08/04 14:19:21;;;;;;;1.30;1.20;;;;;;;;;;5031021;28;20025;-84
2023/08/04 14:21:46;;;;;;;1.67;1.13;;;;;;;;;;5034461;28;20048;-84
2023/08/04 14:24:12;;;;;;;1.13;1.10;;;;;;;;;;5016071;28;21498;-84
2023/08/04 14:26:37;;;;;;;1.33;1.20;;;;;;;;;;5027493;28;20029;-84
2023/08/04 14:29:04;;;;;;;1.17;1.08;;;;;;;;;;5028532;28;20029;-84
2023/08/04 14:31:29;;;;;;;2.33;0.98;;;;;;;;;;5030743;28;20079;-84
2023/08/04 14:34:04;;;;;;;1.38;1.02;;;;;;;;;;5027197;28;20026;-86
2023/08/04 14:36:57;;;;;;;0.80;0.80;;;;;;;;;;5029639;28;20487;-85
2023/08/04 14:39:23;;;;;;;4.10;2.28;;;;;;;;;;5020113;28;20652;-83